createdAt,value
2023-04-16T00:02:04.702Z,98259.19
2023-04-16T00:04:31.783Z,98247.19
2023-04-16T00:06:58.768Z,98241.25
2023-04-16T00:09:25.713Z,98244.63
2023-04-16T00:11:52.683Z,98246.41
2023-04-16T00:14:20.984Z,98240.47
2023-04-16T00:16:47.994Z,98257.06
2023-04-16T00:19:14.998Z,98251.25
2023-04-16T00:21:41.988Z,98250.47
2023-04-16T00:24:09.300Z,98259.22
2023-04-16T00:26:36.186Z,98250.53
2023-04-16T00:29:03.139Z,98249.94
2023-04-16T00:31:32.574Z,98248.63
2023-04-16T00:33:59.571Z,98253.31
2023-04-16T00:36:27.836Z,98246.09
2023-04-16T00:38:56.693Z,98251.25
2023-04-16T00:41:23.848Z,98248.41
2023-04-16T00:43:51.748Z,98254.88
2023-04-16T00:46:21.941Z,98248.50
2023-04-16T00:48:51.700Z,98253.88
2023-04-16T00:51:20.173Z,98255.09
2023-04-16T00:53:47.709Z,98250.41
2023-04-16T00:56:14.922Z,98248.63
2023-04-16T00:58:41.852Z,98247.28
2023-04-16T01:01:08.936Z,98250.81
2023-04-16T01:03:39.540Z,98250.28
2023-04-16T01:06:08.314Z,98240.94
2023-04-16T01:08:35.728Z,98249.47
2023-04-16T01:11:03.288Z,98245.91
2023-04-16T01:13:30.565Z,98252.38
2023-04-16T01:15:57.845Z,98246.34
2023-04-16T01:18:27.706Z,98249.16
2023-04-16T01:20:55.999Z,98234.38
2023-04-16T01:23:23.119Z,98239.84
2023-04-16T01:25:50.094Z,98244.09
2023-04-16T01:28:17.136Z,98243.03
2023-04-16T01:30:44.230Z,98247.28
2023-04-16T01:33:24.243Z,98239.41
2023-04-16T01:35:51.209Z,98239.50
2023-04-16T01:38:19.900Z,98236.84
2023-04-16T01:40:46.862Z,98236.69
2023-04-16T01:43:13.754Z,98239.84
2023-04-16T01:45:41.161Z,98237.81
2023-04-16T01:48:09.195Z,98246.09
2023-04-16T01:50:36.340Z,98240.16
2023-04-16T01:53:05.214Z,98232.44
2023-04-16T01:55:34.454Z,98233.44
2023-04-16T01:58:01.624Z,98235.22
2023-04-16T02:00:33.780Z,98237.50
2023-04-16T02:03:00.905Z,98241.31
2023-04-16T02:05:28.858Z,98237.38
2023-04-16T02:07:56.022Z,98233.91
2023-04-16T02:10:23.472Z,98228.31
2023-04-16T02:12:52.428Z,98222.84
2023-04-16T02:15:19.306Z,98224.09
2023-04-16T02:17:47.956Z,98229.69
2023-04-16T02:20:15.185Z,98232.28
2023-04-16T02:22:55.161Z,98233.81
2023-04-16T02:25:24.388Z,98233.81
2023-04-16T02:27:55.396Z,98233.97
2023-04-16T02:30:36.767Z,98229.00
2023-04-16T02:33:07.273Z,98224.38
2023-04-16T02:35:35.289Z,98225.50
2023-04-16T02:38:02.705Z,98223.50
2023-04-16T02:40:30.789Z,98224.84
2023-04-16T02:42:59.300Z,98230.47
2023-04-16T02:45:26.574Z,98216.56
2023-04-16T02:47:53.555Z,98212.97
2023-04-16T02:50:20.555Z,98212.22
2023-04-16T02:52:48.661Z,98224.28
2023-04-16T02:55:16.121Z,98227.88
2023-04-16T02:57:43.184Z,98222.97
2023-04-16T03:00:12.851Z,98218.47
2023-04-16T03:02:39.935Z,98231.56
2023-04-16T03:05:07.593Z,98228.19
2023-04-16T03:07:35.236Z,98228.19
2023-04-16T03:10:02.486Z,98226.41
2023-04-16T03:12:29.508Z,98223.84
2023-04-16T03:14:56.819Z,98226.63
2023-04-16T03:17:25.373Z,98227.88
2023-04-16T03:19:52.386Z,98235.03
2023-04-16T03:22:19.888Z,98230.91
2023-04-16T03:24:46.911Z,98245.31
2023-04-16T03:27:13.910Z,98239.63
2023-04-16T03:29:41.476Z,98242.88
2023-04-16T03:32:09.016Z,98234.03
2023-04-16T03:34:38.400Z,98239.50
2023-04-16T03:37:06.300Z,98247.22
2023-04-16T03:39:34.594Z,98243.09
2023-04-16T03:42:02.363Z,98251.81
2023-04-16T03:44:29.593Z,98257.41
2023-04-16T03:46:56.612Z,98254.81
2023-04-16T03:49:23.818Z,98258.84
2023-04-16T03:51:52.685Z,98262.06
2023-04-16T03:54:22.068Z,98261.44
2023-04-16T03:56:57.104Z,98257.91
2023-04-16T03:59:24.575Z,98267.44
2023-04-16T04:01:51.501Z,98269.66
2023-04-16T04:04:18.574Z,98262.41
2023-04-16T04:06:46.352Z,98268.81
2023-04-16T04:09:18.104Z,98254.38
2023-04-16T04:11:45.968Z,98264.47
2023-04-16T04:14:12.989Z,98261.56
2023-04-16T04:16:40.386Z,98265.09
2023-04-16T04:19:07.675Z,98266.03
2023-04-16T04:21:34.812Z,98272.19
2023-04-16T04:24:03.694Z,98271.41
2023-04-16T04:26:33.979Z,98272.03
2023-04-16T04:29:00.978Z,98279.63
2023-04-16T04:31:28.004Z,98279.31
2023-04-16T04:33:56.020Z,98274.56
2023-04-16T04:36:22.957Z,98282.28
2023-04-16T04:38:50.312Z,98279.00
2023-04-16T04:41:17.612Z,98282.66
2023-04-16T04:43:46.070Z,98285.28
2023-04-16T04:46:13.249Z,98282.31
2023-04-16T04:48:41.120Z,98287.41
2023-04-16T04:51:08.171Z,98286.47
2023-04-16T04:53:35.274Z,98289.97
2023-04-16T04:56:12.472Z,98291.34
2023-04-16T04:58:40.660Z,98294.06
2023-04-16T05:01:09.143Z,98296.75
2023-04-16T05:03:36.647Z,98289.28
2023-04-16T05:06:03.874Z,98283.88
2023-04-16T05:08:31.033Z,98286.13
2023-04-16T05:10:58.426Z,98277.94
2023-04-16T05:13:25.507Z,98279.25
2023-04-16T05:15:52.415Z,98277.41
2023-04-16T05:18:20.981Z,98284.88
2023-04-16T05:20:48.176Z,98270.69
2023-04-16T05:23:15.742Z,98273.09
2023-04-16T05:25:42.679Z,98270.25
2023-04-16T05:28:10.401Z,98274.66
2023-04-16T05:30:37.376Z,98274.09
2023-04-16T05:33:04.312Z,98275.09
2023-04-16T05:35:32.719Z,98280.53
2023-04-16T05:37:59.840Z,98282.88
2023-04-16T05:40:27.100Z,98274.81
2023-04-16T05:42:54.021Z,98277.94
2023-04-16T05:45:21.300Z,98277.16
2023-04-16T05:47:48.302Z,98279.00
2023-04-16T05:50:15.430Z,98276.25
2023-04-16T05:52:43.791Z,98278.94
2023-04-16T05:55:10.941Z,98279.31
2023-04-16T05:57:37.870Z,98270.75
2023-04-16T06:00:06.004Z,98270.56
2023-04-16T06:02:39.355Z,98262.06
2023-04-16T06:05:06.982Z,98269.28
2023-04-16T06:07:33.949Z,98271.88
2023-04-16T06:10:02.332Z,98277.59
2023-04-16T06:12:29.341Z,98271.38
2023-04-16T06:14:56.347Z,98275.63
2023-04-16T06:17:23.473Z,98274.84
2023-04-16T06:19:50.368Z,98271.53
2023-04-16T06:22:17.307Z,98276.22
2023-04-16T06:24:44.380Z,98274.19
2023-04-16T06:27:12.747Z,98291.78
2023-04-16T06:29:41.726Z,98282.75
2023-04-16T06:32:09.011Z,98281.47
2023-04-16T06:34:36.207Z,98281.97
2023-04-16T06:37:03.221Z,98276.78
2023-04-16T06:39:31.108Z,98291.78
2023-04-16T06:41:58.098Z,98287.69
2023-04-16T06:44:26.567Z,98289.25
2023-04-16T06:46:53.651Z,98282.28
2023-04-16T06:49:21.563Z,98289.34
2023-04-16T06:51:48.518Z,98291.97
2023-04-16T06:54:15.583Z,98295.09
2023-04-16T06:56:42.557Z,98281.38
2023-04-16T06:59:09.685Z,98278.53
2023-04-16T07:01:38.432Z,98284.81
2023-04-16T07:04:05.746Z,98290.06
2023-04-16T07:06:32.959Z,98290.59
2023-04-16T07:08:59.843Z,98278.13
2023-04-16T07:11:27.435Z,98279.44
2023-04-16T07:13:54.420Z,98303.56
2023-04-16T07:16:21.442Z,98288.47
2023-04-16T07:18:49.776Z,98295.47
2023-04-16T07:21:17.004Z,98286.31
2023-04-16T07:23:43.907Z,98293.81
2023-04-16T07:26:11.909Z,98285.13
2023-04-16T07:28:39.192Z,98293.09
2023-04-16T07:31:06.325Z,98278.81
2023-04-16T07:33:33.246Z,98281.66
2023-04-16T07:36:01.577Z,98284.97
2023-04-16T07:38:28.848Z,98279.50
2023-04-16T07:40:56.789Z,98279.84
2023-04-16T07:43:23.823Z,98281.44
2023-04-16T07:45:51.040Z,98277.31
2023-04-16T07:48:17.971Z,98270.47
2023-04-16T07:50:44.992Z,98270.78
2023-04-16T07:53:13.270Z,98272.66
2023-04-16T07:55:40.329Z,98268.47
2023-04-16T07:58:09.437Z,98252.56
2023-04-16T08:00:36.463Z,98263.47
2023-04-16T08:03:04.110Z,98257.00
2023-04-16T08:05:31.372Z,98275.63
2023-04-16T08:07:58.450Z,98278.88
2023-04-16T08:10:27.588Z,98277.44
2023-04-16T08:12:54.548Z,98276.84
2023-04-16T08:15:21.590Z,98278.00
2023-04-16T08:17:48.860Z,98275.84
2023-04-16T08:20:18.634Z,98288.78
2023-04-16T08:22:46.385Z,98271.25
2023-04-16T08:25:13.396Z,98266.19
2023-04-16T08:27:41.705Z,98260.81
2023-04-16T08:30:08.888Z,98264.13
2023-04-16T08:32:35.983Z,98256.75
2023-04-16T08:35:03.056Z,98250.69
2023-04-16T08:37:29.985Z,98241.00
2023-04-16T08:39:56.923Z,98244.72
2023-04-16T08:42:30.813Z,98253.63
2023-04-16T08:45:06.764Z,98250.09
2023-04-16T08:47:35.340Z,98247.13
2023-04-16T08:50:04.856Z,98248.84
2023-04-16T08:52:32.501Z,98240.47
2023-04-16T08:55:05.460Z,98254.44
2023-04-16T08:57:39.594Z,98240.59
2023-04-16T09:00:09.994Z,98241.16
2023-04-16T09:02:37.505Z,98237.66
2023-04-16T09:05:07.127Z,98239.97
2023-04-16T09:07:34.986Z,98243.06
2023-04-16T09:10:03.217Z,98238.94
2023-04-16T09:12:30.631Z,98231.16
2023-04-16T09:14:59.815Z,98233.94
2023-04-16T09:17:28.390Z,98238.03
2023-04-16T09:19:55.645Z,98236.50
2023-04-16T09:22:22.598Z,98243.50
2023-04-16T09:24:52.268Z,98245.63
2023-04-16T09:27:19.667Z,98241.19
2023-04-16T09:29:46.840Z,98248.38
2023-04-16T09:32:13.858Z,98241.13
2023-04-16T09:34:58.072Z,98253.97
2023-04-16T09:37:26.103Z,98252.91
2023-04-16T09:39:55.532Z,98251.19
2023-04-16T09:42:24.356Z,98253.09
2023-04-16T09:44:52.361Z,98247.78
2023-04-16T09:47:19.459Z,98254.09
2023-04-16T09:49:47.217Z,98250.53
2023-04-16T09:52:16.462Z,98253.22
2023-04-16T09:54:47.934Z,98256.66
2023-04-16T09:57:16.005Z,98263.47
2023-04-16T09:59:43.191Z,98248.97
2023-04-16T10:02:15.886Z,98257.31
2023-04-16T10:04:51.400Z,98257.84
2023-04-16T10:07:20.316Z,98264.63
2023-04-16T10:09:52.501Z,98259.16
2023-04-16T10:12:19.656Z,98273.91
2023-04-16T10:14:48.349Z,98269.97
2023-04-16T10:17:17.569Z,98254.03
2023-04-16T10:19:45.667Z,98251.81
2023-04-16T10:22:12.824Z,98257.97
2023-04-16T10:24:41.582Z,98261.78
2023-04-16T10:27:08.698Z,98259.34
2023-04-16T10:29:36.471Z,98252.59
2023-04-16T10:32:04.367Z,98248.91
2023-04-16T10:34:31.963Z,98262.81
2023-04-16T10:36:59.770Z,98262.25
2023-04-16T10:39:29.504Z,98265.00
2023-04-16T10:42:09.293Z,98272.50
2023-04-16T10:44:36.649Z,98271.72
2023-04-16T10:47:10.026Z,98273.00
2023-04-16T10:49:37.327Z,98272.44
2023-04-16T10:52:10.102Z,98288.22
2023-04-16T10:54:37.529Z,98288.94
2023-04-16T10:57:06.544Z,98284.69
2023-04-16T10:59:36.705Z,98297.25
2023-04-16T11:02:08.656Z,98289.00
2023-04-16T11:04:37.524Z,98289.63
2023-04-16T11:07:16.500Z,98290.69
2023-04-16T11:09:51.293Z,98299.31
2023-04-16T11:12:20.097Z,98295.25
2023-04-16T11:14:50.244Z,98281.00
2023-04-16T11:17:17.705Z,98283.56
2023-04-16T11:19:44.844Z,98280.78
2023-04-16T11:22:17.301Z,98265.31
2023-04-16T11:24:45.276Z,98264.09
2023-04-16T11:27:16.118Z,98248.47
2023-04-16T11:29:45.057Z,98244.81
2023-04-16T11:32:22.762Z,98235.03
2023-04-16T11:34:50.237Z,98224.34
2023-04-16T11:37:20.999Z,98220.84
2023-04-16T11:39:49.397Z,98216.63
2023-04-16T11:42:21.395Z,98203.69
2023-04-16T11:44:53.325Z,98205.13
2023-04-16T11:47:22.705Z,98202.47
2023-04-16T11:49:50.106Z,98195.50
2023-04-16T11:52:27.418Z,98192.09
2023-04-16T11:54:54.730Z,98194.88
2023-04-16T11:57:26.601Z,98188.84
2023-04-16T12:00:02.408Z,98177.81
2023-04-16T12:02:42.078Z,98176.31
2023-04-16T12:05:28.641Z,98177.28
2023-04-16T12:07:55.884Z,98170.25
2023-04-16T12:10:22.890Z,98171.41
2023-04-16T12:12:50.333Z,98164.66
2023-04-16T12:15:17.462Z,98169.97
2023-04-16T12:17:46.230Z,98163.88
2023-04-16T12:20:15.396Z,98158.78
2023-04-16T12:22:45.459Z,98153.22
2023-04-16T12:25:14.522Z,98151.06
2023-04-16T12:27:43.387Z,98150.16
2023-04-16T12:30:10.920Z,98140.09
2023-04-16T12:32:38.031Z,98141.63
2023-04-16T12:35:07.771Z,98148.41
2023-04-16T12:37:35.427Z,98148.69
2023-04-16T12:40:02.441Z,98159.88
2023-04-16T12:42:35.631Z,98157.56
2023-04-16T12:45:04.040Z,98155.38
2023-04-16T12:47:31.418Z,98156.69
2023-04-16T12:49:58.694Z,98150.34
2023-04-16T12:52:28.084Z,98154.91
2023-04-16T12:54:55.132Z,98153.81
2023-04-16T12:57:23.872Z,98143.59
2023-04-16T12:59:50.954Z,98145.94
2023-04-16T13:02:17.989Z,98137.34
2023-04-16T13:04:45.138Z,98131.22
2023-04-16T13:07:12.170Z,98128.53
2023-04-16T13:09:41.108Z,98122.41
2023-04-16T13:12:08.189Z,98118.28
2023-04-16T13:14:35.259Z,98110.47
2023-04-16T13:17:02.517Z,98102.81
2023-04-16T13:19:29.749Z,98103.81
2023-04-16T13:21:56.749Z,98104.31
2023-04-16T13:24:24.215Z,98104.91
2023-04-16T13:26:53.667Z,98105.22
2023-04-16T13:29:20.796Z,98097.06
2023-04-16T13:31:48.149Z,98104.28
2023-04-16T13:34:15.403Z,98108.13
2023-04-16T13:36:42.354Z,98098.88
2023-04-16T13:39:13.073Z,98102.88
2023-04-16T13:41:40.497Z,98097.03
2023-04-16T13:44:08.844Z,98097.94
2023-04-16T13:46:35.839Z,98095.97
2023-04-16T13:49:02.891Z,98093.22
2023-04-16T13:51:29.906Z,98099.66
2023-04-16T13:53:56.852Z,98098.06
2023-04-16T13:56:23.815Z,98080.28
2023-04-16T13:58:50.861Z,98099.56
2023-04-16T14:01:19.657Z,98097.03
2023-04-16T14:03:47.159Z,98096.13
2023-04-16T14:06:15.090Z,98105.88
2023-04-16T14:08:42.026Z,98108.41
2023-04-16T14:11:09.262Z,98093.81
2023-04-16T14:13:36.876Z,98101.41
2023-04-16T14:16:04.263Z,98102.72
2023-04-16T14:18:32.620Z,98109.88
2023-04-16T14:21:02.046Z,98110.13
2023-04-16T14:23:29.116Z,98103.84
2023-04-16T14:25:56.860Z,98112.16
2023-04-16T14:28:23.804Z,98100.25
2023-04-16T14:30:50.908Z,98097.50
2023-04-16T14:33:17.885Z,98107.75
2023-04-16T14:35:46.586Z,98109.38
2023-04-16T14:38:13.546Z,98104.72
2023-04-16T14:40:40.654Z,98108.41
2023-04-16T14:43:07.671Z,98098.06
2023-04-16T14:45:34.673Z,98108.72
2023-04-16T14:48:02.129Z,98104.50
2023-04-16T14:50:29.145Z,98102.25
2023-04-16T14:52:57.622Z,98103.88
2023-04-16T14:55:24.535Z,98110.00
2023-04-16T14:57:51.559Z,98109.59
2023-04-16T15:00:18.892Z,98111.34
2023-04-16T15:02:47.494Z,98105.69
2023-04-16T15:05:14.591Z,98109.13
2023-04-16T15:07:41.513Z,98114.75
2023-04-16T15:10:10.875Z,98121.03
2023-04-16T15:12:37.986Z,98116.44
2023-04-16T15:15:06.395Z,98116.53
2023-04-16T15:17:33.425Z,98112.91
2023-04-16T15:20:00.727Z,98117.94
2023-04-16T15:22:29.984Z,98119.03
2023-04-16T15:24:56.917Z,98120.91
2023-04-16T15:27:25.348Z,98124.34
2023-04-16T15:29:53.952Z,98122.47
2023-04-16T15:32:20.998Z,98115.69
2023-04-16T15:34:47.991Z,98120.63
2023-04-16T15:37:16.121Z,98117.19
2023-04-16T15:39:43.299Z,98122.84
2023-04-16T15:42:11.479Z,98116.00
2023-04-16T15:44:40.435Z,98121.00
2023-04-16T15:47:08.666Z,98121.06
2023-04-16T15:49:36.374Z,98123.94
2023-04-16T15:52:03.613Z,98123.72
2023-04-16T15:54:31.840Z,98116.19
2023-04-16T15:56:59.115Z,98128.72
2023-04-16T15:59:29.339Z,98120.44
2023-04-16T16:01:57.754Z,98125.13
2023-04-16T16:04:26.589Z,98117.06
2023-04-16T16:06:53.901Z,98115.81
2023-04-16T16:09:25.866Z,98117.88
2023-04-16T16:11:54.356Z,98117.38
2023-04-16T16:14:22.363Z,98114.22
2023-04-16T16:16:49.402Z,98116.31
2023-04-16T16:19:17.825Z,98110.88
2023-04-16T16:21:44.765Z,98113.50
2023-04-16T16:24:11.697Z,98120.03
2023-04-16T16:26:38.640Z,98117.44
2023-04-16T16:29:05.710Z,98117.16
2023-04-16T16:31:32.810Z,98118.25
2023-04-16T16:33:59.827Z,98132.03
2023-04-16T16:36:30.044Z,98127.38
2023-04-16T16:38:57.287Z,98136.22
2023-04-16T16:41:24.221Z,98131.84
2023-04-16T16:43:51.721Z,98131.56
2023-04-16T16:46:18.773Z,98128.47
2023-04-16T16:48:46.416Z,98136.03
2023-04-16T16:51:14.966Z,98134.47
2023-04-16T16:53:43.385Z,98134.69
2023-04-16T16:56:10.595Z,98131.06
2023-04-16T16:58:37.524Z,98132.88
2023-04-16T17:01:04.495Z,98132.13
2023-04-16T17:03:31.577Z,98127.97
2023-04-16T17:05:59.131Z,98132.63
2023-04-16T17:08:26.075Z,98139.38
2023-04-16T17:10:54.463Z,98146.13
2023-04-16T17:13:21.574Z,98145.59
2023-04-16T17:15:48.471Z,98146.59
2023-04-16T17:18:15.585Z,98146.06
2023-04-16T17:20:43.025Z,98143.94
2023-04-16T17:23:09.928Z,98156.91
2023-04-16T17:25:36.859Z,98153.75
2023-04-16T17:28:05.556Z,98160.19
2023-04-16T17:30:32.487Z,98166.44
2023-04-16T17:32:59.708Z,98171.56
2023-04-16T17:35:26.683Z,98174.91
2023-04-16T17:37:53.629Z,98172.06
2023-04-16T17:40:20.929Z,98176.97
2023-04-16T17:42:48.775Z,98182.94
2023-04-16T17:45:17.412Z,98189.66
2023-04-16T17:47:44.517Z,98188.91
2023-04-16T17:50:12.295Z,98199.47
2023-04-16T17:52:39.279Z,98198.72
2023-04-16T17:55:07.735Z,98191.97
2023-04-16T17:57:34.636Z,98200.78
2023-04-16T18:00:01.677Z,98200.03
2023-04-16T18:02:43.308Z,98200.53
2023-04-16T18:05:10.656Z,98206.00
2023-04-16T18:07:38.989Z,98200.81
2023-04-16T18:10:07.539Z,98205.22
2023-04-16T18:12:35.056Z,98210.91
2023-04-16T18:15:02.018Z,98216.31
2023-04-16T18:17:29.014Z,98216.03
2023-04-16T18:19:57.834Z,98219.41
2023-04-16T18:22:26.302Z,98224.03
2023-04-16T18:24:54.912Z,98222.19
2023-04-16T18:27:22.036Z,98219.03
2023-04-16T18:29:49.512Z,98230.34
2023-04-16T18:32:16.795Z,98226.41
2023-04-16T18:34:44.218Z,98236.19
2023-04-16T18:37:12.570Z,98228.91
2023-04-16T18:39:39.621Z,98235.34
2023-04-16T18:42:06.722Z,98233.47
2023-04-16T18:44:33.739Z,98235.75
2023-04-16T18:47:00.744Z,98239.63
2023-04-16T18:49:27.761Z,98232.88
2023-04-16T18:51:57.194Z,98226.16
2023-04-16T18:54:25.527Z,98231.56
2023-04-16T18:56:52.499Z,98240.59
2023-04-16T18:59:19.695Z,98244.22
2023-04-16T19:01:46.768Z,98242.66
2023-04-16T19:04:13.705Z,98240.84
2023-04-16T19:06:41.065Z,98241.09
2023-04-16T19:09:10.136Z,98237.19
2023-04-16T19:11:39.827Z,98234.84
2023-04-16T19:14:07.887Z,98239.25
2023-04-16T19:16:35.161Z,98232.50
2023-04-16T19:19:02.187Z,98224.44
2023-04-16T19:21:29.136Z,98223.66
2023-04-16T19:23:56.114Z,98215.06
2023-04-16T19:26:23.389Z,98216.34
2023-04-16T19:28:51.878Z,98215.03
2023-04-16T19:31:18.837Z,98227.97
2023-04-16T19:33:45.879Z,98224.59
2023-04-16T19:36:12.816Z,98231.78
2023-04-16T19:38:39.739Z,98225.28
2023-04-16T19:41:06.824Z,98221.03
2023-04-16T19:43:34.234Z,98228.94
2023-04-16T19:46:03.335Z,98225.50
2023-04-16T19:48:31.771Z,98222.84
2023-04-16T19:51:02.723Z,98218.38
2023-04-16T19:53:29.712Z,98225.75
2023-04-16T19:55:56.691Z,98232.94
2023-04-16T19:58:24.232Z,98228.31
2023-04-16T20:00:51.173Z,98228.00
2023-04-16T20:03:19.566Z,98234.91
2023-04-16T20:05:48.601Z,98238.97
2023-04-16T20:08:15.871Z,98226.78
2023-04-16T20:10:42.808Z,98237.28
2023-04-16T20:13:12.082Z,98233.06
2023-04-16T20:15:39.061Z,98238.41
2023-04-16T20:18:06.875Z,98234.50
2023-04-16T20:20:37.846Z,98244.00
2023-04-16T20:23:04.911Z,98235.38
2023-04-16T20:25:32.029Z,98237.94
2023-04-16T20:27:58.914Z,98235.31
2023-04-16T20:30:29.506Z,98233.75
2023-04-16T20:32:56.741Z,98235.22
2023-04-16T20:35:23.695Z,98233.84
2023-04-16T20:37:52.127Z,98235.00
2023-04-16T20:40:19.134Z,98231.56
2023-04-16T20:42:46.463Z,98243.91
2023-04-16T20:45:13.642Z,98225.09
2023-04-16T20:47:40.723Z,98222.78
2023-04-16T20:50:08.783Z,98220.44
2023-04-16T20:52:36.504Z,98221.72
2023-04-16T20:55:05.835Z,98225.31
2023-04-16T20:57:32.819Z,98236.44
2023-04-16T20:59:59.784Z,98238.47
2023-04-16T21:02:28.447Z,98240.88
2023-04-16T21:04:55.699Z,98238.13
2023-04-16T21:07:22.807Z,98245.16
2023-04-16T21:09:49.809Z,98246.28
2023-04-16T21:12:18.127Z,98246.97
2023-04-16T21:14:45.137Z,98240.50
2023-04-16T21:17:12.026Z,98244.84
2023-04-16T21:19:40.171Z,98237.56
2023-04-16T21:22:07.274Z,98243.44
2023-04-16T21:24:34.250Z,98237.41
2023-04-16T21:27:01.768Z,98245.06
2023-04-16T21:29:30.570Z,98236.75
2023-04-16T21:31:57.628Z,98233.63
2023-04-16T21:34:24.622Z,98226.28
2023-04-16T21:36:51.522Z,98221.47
2023-04-16T21:39:19.868Z,98224.50
2023-04-16T21:41:46.984Z,98232.16
2023-04-16T21:44:15.165Z,98221.19
2023-04-16T21:46:43.529Z,98230.41
2023-04-16T21:49:10.670Z,98229.25
2023-04-16T21:51:40.036Z,98230.28
2023-04-16T21:54:07.424Z,98223.34
2023-04-16T21:56:34.334Z,98229.53
2023-04-16T21:59:01.245Z,98230.50
2023-04-16T22:01:28.226Z,98222.69
2023-04-16T22:03:56.644Z,98230.00
2023-04-16T22:06:23.836Z,98228.00
2023-04-16T22:08:50.767Z,98238.41
2023-04-16T22:11:17.780Z,98226.66
2023-04-16T22:13:46.279Z,98234.16
2023-04-16T22:16:13.335Z,98230.44
2023-04-16T22:18:41.187Z,98230.59
2023-04-16T22:21:09.532Z,98210.78
2023-04-16T22:23:36.459Z,98221.38
2023-04-16T22:26:04.500Z,98222.16
2023-04-16T22:28:31.861Z,98217.59
2023-04-16T22:30:58.810Z,98212.97
2023-04-16T22:33:28.587Z,98216.88
2023-04-16T22:35:56.048Z,98221.16
2023-04-16T22:38:24.310Z,98219.38
2023-04-16T22:40:51.190Z,98217.38
2023-04-16T22:43:18.127Z,98213.78
2023-04-16T22:45:46.387Z,98218.69
2023-04-16T22:48:13.567Z,98217.69
2023-04-16T22:50:45.943Z,98214.09
2023-04-16T22:53:13.127Z,98205.81
2023-04-16T22:55:41.437Z,98211.88
2023-04-16T22:58:08.594Z,98216.44
2023-04-16T23:00:36.034Z,98206.63
2023-04-16T23:03:03.095Z,98206.03
2023-04-16T23:05:30.080Z,98203.91
2023-04-16T23:07:56.991Z,98203.38
2023-04-16T23:10:23.901Z,98200.53
2023-04-16T23:12:52.451Z,98199.00
2023-04-16T23:15:19.928Z,98200.22
2023-04-16T23:17:46.938Z,98199.44
2023-04-16T23:20:14.273Z,98197.53
2023-04-16T23:22:41.440Z,98200.56
2023-04-16T23:25:09.355Z,98199.97
2023-04-16T23:27:37.031Z,98200.19
2023-04-16T23:30:06.833Z,98207.69
2023-04-16T23:32:36.595Z,98206.34
2023-04-16T23:35:03.709Z,98214.09
2023-04-16T23:37:30.673Z,98204.56
2023-04-16T23:39:57.660Z,98219.75
2023-04-16T23:42:24.640Z,98221.63
2023-04-16T23:44:51.557Z,98220.63
2023-04-16T23:47:19.924Z,98217.63
2023-04-16T23:49:46.890Z,98207.91
2023-04-16T23:52:14.148Z,98207.44
2023-04-16T23:54:41.124Z,98209.47
2023-04-16T23:57:08.091Z,98206.31
2023-04-16T23:59:35.212Z,98205.75
